sensor_id;sensor_type;location;lat;lon;timestamp;temperature;humidity
51215;DHT22;63849;47.546;19.254;2022-11-15T00:07:57;5.00;86.40
51215;DHT22;63849;47.546;19.254;2022-11-15T00:11:44;4.90;86.60
51215;DHT22;63849;47.546;19.254;2022-11-15T00:15:03;4.80;86.60
51215;DHT22;63849;47.546;19.254;2022-11-15T00:21:42;4.70;86.60
51215;DHT22;63849;47.546;19.254;2022-11-15T00:32:47;4.50;85.70
51215;DHT22;63849;47.546;19.254;2022-11-15T00:38:17;4.60;86.00
51215;DHT22;63849;47.546;19.254;2022-11-15T00:44:46;4.80;86.60
51215;DHT22;63849;47.546;19.254;2022-11-15T00:47:49;4.90;86.80
51215;DHT22;63849;47.546;19.254;2022-11-15T00:51:12;5.10;86.80
51215;DHT22;63849;47.546;19.254;2022-11-15T00:54:07;5.30;86.80
51215;DHT22;63849;47.546;19.254;2022-11-15T00:57:02;5.20;86.90
51215;DHT22;63849;47.546;19.254;2022-11-15T00:59:53;5.20;86.90
51215;DHT22;63849;47.546;19.254;2022-11-15T01:09:04;5.30;86.30
51215;DHT22;63849;47.546;19.254;2022-11-15T01:15:53;5.60;86.70
51215;DHT22;63849;47.546;19.254;2022-11-15T01:18:53;5.70;86.60
51215;DHT22;63849;47.546;19.254;2022-11-15T01:22:21;5.80;86.40
51215;DHT22;63849;47.546;19.254;2022-11-15T01:25:24;5.80;86.40
51215;DHT22;63849;47.546;19.254;2022-11-15T01:31:43;5.90;86.70
51215;DHT22;63849;47.546;19.254;2022-11-15T01:34:29;6.00;86.70
51215;DHT22;63849;47.546;19.254;2022-11-15T01:37:18;6.10;86.50
51215;DHT22;63849;47.546;19.254;2022-11-15T01:46:50;6.20;86.30
51215;DHT22;63849;47.546;19.254;2022-11-15T01:50:10;6.20;86.30
51215;DHT22;63849;47.546;19.254;2022-11-15T01:53:11;6.20;86.30
51215;DHT22;63849;47.546;19.254;2022-11-15T01:56:25;6.30;86.20
51215;DHT22;63849;47.546;19.254;2022-11-15T01:59:37;6.30;86.10
51215;DHT22;63849;47.546;19.254;2022-11-15T02:02:41;6.40;86.20
51215;DHT22;63849;47.546;19.254;2022-11-15T02:42:49;6.50;85.70
51215;DHT22;63849;47.546;19.254;2022-11-15T02:46:18;6.60;85.70
51215;DHT22;63849;47.546;19.254;2022-11-15T02:49:52;6.60;86.00
51215;DHT22;63849;47.546;19.254;2022-11-15T02:52:53;6.50;86.10
51215;DHT22;63849;47.546;19.254;2022-11-15T03:06:21;6.70;86.40
51215;DHT22;63849;47.546;19.254;2022-11-15T03:13:21;6.70;86.40
51215;DHT22;63849;47.546;19.254;2022-11-15T03:16:17;6.70;86.20
51215;DHT22;63849;47.546;19.254;2022-11-15T03:18:52;6.70;86.40
51215;DHT22;63849;47.546;19.254;2022-11-15T03:21:24;6.80;86.50
51215;DHT22;63849;47.546;19.254;2022-11-15T03:23:55;6.70;86.60
51215;DHT22;63849;47.546;19.254;2022-11-15T03:26:29;6.80;86.70
51215;DHT22;63849;47.546;19.254;2022-11-15T03:29:00;6.60;86.90
51215;DHT22;63849;47.546;19.254;2022-11-15T03:31:29;6.70;87.10
51215;DHT22;63849;47.546;19.254;2022-11-15T03:35:06;6.70;87.10
51215;DHT22;63849;47.546;19.254;2022-11-15T03:40:24;6.80;87.10
51215;DHT22;63849;47.546;19.254;2022-11-15T03:43:04;6.70;87.20
51215;DHT22;63849;47.546;19.254;2022-11-15T03:45:41;6.70;87.20
51215;DHT22;63849;47.546;19.254;2022-11-15T03:48:21;6.70;87.30
51215;DHT22;63849;47.546;19.254;2022-11-15T03:50:48;6.70;87.50
51215;DHT22;63849;47.546;19.254;2022-11-15T03:53:19;6.80;87.20
51215;DHT22;63849;47.546;19.254;2022-11-15T03:55:45;6.70;87.40
51215;DHT22;63849;47.546;19.254;2022-11-15T03:58:17;6.70;87.20
51215;DHT22;63849;47.546;19.254;2022-11-15T04:00:48;6.70;87.40
51215;DHT22;63849;47.546;19.254;2022-11-15T04:03:14;6.70;87.30
51215;DHT22;63849;47.546;19.254;2022-11-15T04:05:46;6.60;87.20
51215;DHT22;63849;47.546;19.254;2022-11-15T04:08:15;6.60;87.10
51215;DHT22;63849;47.546;19.254;2022-11-15T04:10:48;6.60;87.20
51215;DHT22;63849;47.546;19.254;2022-11-15T04:13:14;6.60;87.20
51215;DHT22;63849;47.546;19.254;2022-11-15T04:15:43;6.60;87.40
51215;DHT22;63849;47.546;19.254;2022-11-15T04:18:09;6.50;87.50
51215;DHT22;63849;47.546;19.254;2022-11-15T04:20:35;6.50;87.60
51215;DHT22;63849;47.546;19.254;2022-11-15T04:23:26;6.50;87.60
51215;DHT22;63849;47.546;19.254;2022-11-15T04:26:16;6.60;87.50
51215;DHT22;63849;47.546;19.254;2022-11-15T04:28:42;6.40;87.60
51215;DHT22;63849;47.546;19.254;2022-11-15T04:31:27;6.40;87.80
51215;DHT22;63849;47.546;19.254;2022-11-15T04:33:53;6.40;87.90
51215;DHT22;63849;47.546;19.254;2022-11-15T04:36:20;6.50;87.90
51215;DHT22;63849;47.546;19.254;2022-11-15T04:39:04;6.50;87.90
51215;DHT22;63849;47.546;19.254;2022-11-15T04:41:30;6.40;88.00
51215;DHT22;63849;47.546;19.254;2022-11-15T04:43:56;6.50;88.10
51215;DHT22;63849;47.546;19.254;2022-11-15T04:46:24;6.50;88.00
51215;DHT22;63849;47.546;19.254;2022-11-15T04:48:51;6.50;87.90
51215;DHT22;63849;47.546;19.254;2022-11-15T04:51:17;6.60;87.80
51215;DHT22;63849;47.546;19.254;2022-11-15T04:53:43;6.60;87.90
51215;DHT22;63849;47.546;19.254;2022-11-15T04:56:09;6.50;87.90
51215;DHT22;63849;47.546;19.254;2022-11-15T04:58:35;6.50;88.10
51215;DHT22;63849;47.546;19.254;2022-11-15T05:01:14;6.60;88.00
51215;DHT22;63849;47.546;19.254;2022-11-15T05:03:41;6.60;88.00
51215;DHT22;63849;47.546;19.254;2022-11-15T05:06:26;6.50;88.00
51215;DHT22;63849;47.546;19.254;2022-11-15T05:08:52;6.60;87.80
51215;DHT22;63849;47.546;19.254;2022-11-15T05:11:23;6.60;87.70
51215;DHT22;63849;47.546;19.254;2022-11-15T05:13:49;6.60;87.70
51215;DHT22;63849;47.546;19.254;2022-11-15T05:16:18;6.60;87.80
51215;DHT22;63849;47.546;19.254;2022-11-15T05:18:46;6.60;87.70
51215;DHT22;63849;47.546;19.254;2022-11-15T05:21:17;6.70;87.60
51215;DHT22;63849;47.546;19.254;2022-11-15T05:23:43;6.70;87.50
51215;DHT22;63849;47.546;19.254;2022-11-15T05:26:27;6.70;87.60
51215;DHT22;63849;47.546;19.254;2022-11-15T05:28:59;6.80;87.60
51215;DHT22;63849;47.546;19.254;2022-11-15T05:31:25;6.80;87.50
51215;DHT22;63849;47.546;19.254;2022-11-15T05:33:52;6.70;87.40
51215;DHT22;63849;47.546;19.254;2022-11-15T05:36:29;6.70;87.70
51215;DHT22;63849;47.546;19.254;2022-11-15T05:38:57;6.60;87.80
51215;DHT22;63849;47.546;19.254;2022-11-15T05:41:50;6.60;87.80
51215;DHT22;63849;47.546;19.254;2022-11-15T05:44:25;6.70;87.80
51215;DHT22;63849;47.546;19.254;2022-11-15T05:46:53;6.70;87.70
51215;DHT22;63849;47.546;19.254;2022-11-15T05:49:23;6.70;87.70
51215;DHT22;63849;47.546;19.254;2022-11-15T05:51:51;6.70;87.50
51215;DHT22;63849;47.546;19.254;2022-11-15T05:54:17;6.70;87.60
51215;DHT22;63849;47.546;19.254;2022-11-15T05:56:45;6.70;87.60
51215;DHT22;63849;47.546;19.254;2022-11-15T05:59:13;6.70;87.80
51215;DHT22;63849;47.546;19.254;2022-11-15T06:01:42;6.70;87.60
51215;DHT22;63849;47.546;19.254;2022-11-15T06:04:10;6.70;87.90
51215;DHT22;63849;47.546;19.254;2022-11-15T06:06:39;6.70;87.80
51215;DHT22;63849;47.546;19.254;2022-11-15T06:09:07;6.60;88.10
51215;DHT22;63849;47.546;19.254;2022-11-15T06:11:36;6.50;88.10
51215;DHT22;63849;47.546;19.254;2022-11-15T06:14:01;6.60;88.10
51215;DHT22;63849;47.546;19.254;2022-11-15T06:16:27;6.60;88.20
51215;DHT22;63849;47.546;19.254;2022-11-15T06:18:53;6.50;88.10
51215;DHT22;63849;47.546;19.254;2022-11-15T06:21:19;6.40;88.40
51215;DHT22;63849;47.546;19.254;2022-11-15T06:23:45;6.50;88.50
51215;DHT22;63849;47.546;19.254;2022-11-15T06:26:10;6.40;88.60
51215;DHT22;63849;47.546;19.254;2022-11-15T06:28:36;6.50;88.50
51215;DHT22;63849;47.546;19.254;2022-11-15T06:31:06;6.50;88.50
51215;DHT22;63849;47.546;19.254;2022-11-15T06:33:32;6.50;88.50
51215;DHT22;63849;47.546;19.254;2022-11-15T06:36:03;6.60;88.50
51215;DHT22;63849;47.546;19.254;2022-11-15T06:38:29;6.60;88.40
51215;DHT22;63849;47.546;19.254;2022-11-15T06:41:00;6.70;88.30
51215;DHT22;63849;47.546;19.254;2022-11-15T06:43:26;6.80;88.00
51215;DHT22;63849;47.546;19.254;2022-11-15T06:45:52;6.80;88.00
51215;DHT22;63849;47.546;19.254;2022-11-15T06:48:17;6.80;87.90
51215;DHT22;63849;47.546;19.254;2022-11-15T06:50:50;6.90;87.90
51215;DHT22;63849;47.546;19.254;2022-11-15T06:53:17;7.00;87.90
51215;DHT22;63849;47.546;19.254;2022-11-15T06:55:42;7.10;88.00
51215;DHT22;63849;47.546;19.254;2022-11-15T06:58:08;7.10;88.10
51215;DHT22;63849;47.546;19.254;2022-11-15T07:00:34;7.20;87.70
51215;DHT22;63849;47.546;19.254;2022-11-15T07:03:00;7.30;87.30
51215;DHT22;63849;47.546;19.254;2022-11-15T07:05:27;7.30;86.90
51215;DHT22;63849;47.546;19.254;2022-11-15T07:07:54;7.30;86.60
51215;DHT22;63849;47.546;19.254;2022-11-15T07:10:20;7.30;86.70
51215;DHT22;63849;47.546;19.254;2022-11-15T07:12:48;7.30;86.70
51215;DHT22;63849;47.546;19.254;2022-11-15T07:15:15;7.30;86.60
51215;DHT22;63849;47.546;19.254;2022-11-15T07:17:40;7.30;86.60
51215;DHT22;63849;47.546;19.254;2022-11-15T07:20:06;7.30;86.80
51215;DHT22;63849;47.546;19.254;2022-11-15T07:22:32;7.30;87.00
51215;DHT22;63849;47.546;19.254;2022-11-15T07:24:58;7.40;86.70
51215;DHT22;63849;47.546;19.254;2022-11-15T07:27:24;7.40;86.70
51215;DHT22;63849;47.546;19.254;2022-11-15T07:29:49;7.30;86.60
51215;DHT22;63849;47.546;19.254;2022-11-15T07:32:15;7.30;86.60
51215;DHT22;63849;47.546;19.254;2022-11-15T07:34:41;7.30;86.70
51215;DHT22;63849;47.546;19.254;2022-11-15T07:37:07;7.30;86.70
51215;DHT22;63849;47.546;19.254;2022-11-15T07:39:33;7.40;86.60
51215;DHT22;63849;47.546;19.254;2022-11-15T07:41:59;7.40;86.70
51215;DHT22;63849;47.546;19.254;2022-11-15T07:44:43;7.40;86.60
51215;DHT22;63849;47.546;19.254;2022-11-15T07:47:09;7.40;86.30
51215;DHT22;63849;47.546;19.254;2022-11-15T07:49:35;7.50;86.30
51215;DHT22;63849;47.546;19.254;2022-11-15T07:52:00;7.50;86.20
51215;DHT22;63849;47.546;19.254;2022-11-15T07:54:26;7.50;86.20
51215;DHT22;63849;47.546;19.254;2022-11-15T07:56:52;7.60;86.20
51215;DHT22;63849;47.546;19.254;2022-11-15T07:59:18;7.70;86.30
51215;DHT22;63849;47.546;19.254;2022-11-15T08:01:44;7.60;86.60
51215;DHT22;63849;47.546;19.254;2022-11-15T08:04:11;7.60;86.40
51215;DHT22;63849;47.546;19.254;2022-11-15T08:06:37;7.60;86.60
51215;DHT22;63849;47.546;19.254;2022-11-15T08:09:03;7.60;86.30
51215;DHT22;63849;47.546;19.254;2022-11-15T08:11:29;7.80;86.30
51215;DHT22;63849;47.546;19.254;2022-11-15T08:13:55;7.80;86.00
51215;DHT22;63849;47.546;19.254;2022-11-15T08:16:20;7.80;86.20
51215;DHT22;63849;47.546;19.254;2022-11-15T08:18:46;7.80;86.20
51215;DHT22;63849;47.546;19.254;2022-11-15T08:21:16;7.80;86.20
51215;DHT22;63849;47.546;19.254;2022-11-15T08:23:43;7.80;86.00
51215;DHT22;63849;47.546;19.254;2022-11-15T08:26:09;7.80;85.80
51215;DHT22;63849;47.546;19.254;2022-11-15T08:28:35;7.90;85.90
51215;DHT22;63849;47.546;19.254;2022-11-15T08:31:01;7.90;85.80
51215;DHT22;63849;47.546;19.254;2022-11-15T08:33:28;7.90;85.30
51215;DHT22;63849;47.546;19.254;2022-11-15T08:35:57;7.90;85.50
51215;DHT22;63849;47.546;19.254;2022-11-15T08:38:23;7.80;85.20
51215;DHT22;63849;47.546;19.254;2022-11-15T08:40:51;7.80;85.30
51215;DHT22;63849;47.546;19.254;2022-11-15T08:43:17;7.90;85.50
51215;DHT22;63849;47.546;19.254;2022-11-15T08:45:43;7.90;85.50
51215;DHT22;63849;47.546;19.254;2022-11-15T08:48:09;8.00;85.60
51215;DHT22;63849;47.546;19.254;2022-11-15T08:50:35;8.10;85.50
51215;DHT22;63849;47.546;19.254;2022-11-15T08:53:07;8.10;85.60
51215;DHT22;63849;47.546;19.254;2022-11-15T08:55:36;8.20;85.40
51215;DHT22;63849;47.546;19.254;2022-11-15T08:58:03;8.20;85.90
51215;DHT22;63849;47.546;19.254;2022-11-15T09:00:29;8.30;85.90
51215;DHT22;63849;47.546;19.254;2022-11-15T09:02:55;8.40;85.60
51215;DHT22;63849;47.546;19.254;2022-11-15T09:05:21;8.50;85.10
51215;DHT22;63849;47.546;19.254;2022-11-15T09:07:47;8.50;84.50
51215;DHT22;63849;47.546;19.254;2022-11-15T09:10:13;8.50;84.40
51215;DHT22;63849;47.546;19.254;2022-11-15T09:12:38;8.50;84.20
51215;DHT22;63849;47.546;19.254;2022-11-15T09:15:05;8.50;84.20
51215;DHT22;63849;47.546;19.254;2022-11-15T09:17:31;8.50;84.80
51215;DHT22;63849;47.546;19.254;2022-11-15T09:19:57;8.50;85.00
51215;DHT22;63849;47.546;19.254;2022-11-15T09:22:23;8.40;84.60
51215;DHT22;63849;47.546;19.254;2022-11-15T09:24:49;8.40;84.90
51215;DHT22;63849;47.546;19.254;2022-11-15T09:27:15;8.50;85.10
51215;DHT22;63849;47.546;19.254;2022-11-15T09:29:40;8.60;84.80
51215;DHT22;63849;47.546;19.254;2022-11-15T09:32:06;8.60;85.50
51215;DHT22;63849;47.546;19.254;2022-11-15T09:34:32;8.70;85.10
51215;DHT22;63849;47.546;19.254;2022-11-15T09:36:58;8.40;84.90
51215;DHT22;63849;47.546;19.254;2022-11-15T09:39:23;8.50;85.70
51215;DHT22;63849;47.546;19.254;2022-11-15T09:49:56;8.30;86.60
51215;DHT22;63849;47.546;19.254;2022-11-15T09:52:23;8.30;86.80
51215;DHT22;63849;47.546;19.254;2022-11-15T09:54:51;8.40;87.00
51215;DHT22;63849;47.546;19.254;2022-11-15T10:05:01;8.40;86.40
51215;DHT22;63849;47.546;19.254;2022-11-15T10:07:44;8.50;86.70
51215;DHT22;63849;47.546;19.254;2022-11-15T10:12:53;8.60;86.80
51215;DHT22;63849;47.546;19.254;2022-11-15T10:15:19;8.60;86.60
51215;DHT22;63849;47.546;19.254;2022-11-15T10:18:07;8.60;86.60
51215;DHT22;63849;47.546;19.254;2022-11-15T10:20:48;8.70;86.60
51215;DHT22;63849;47.546;19.254;2022-11-15T10:23:19;8.70;86.40
51215;DHT22;63849;47.546;19.254;2022-11-15T10:25:45;8.80;86.60
51215;DHT22;63849;47.546;19.254;2022-11-15T10:28:13;8.80;85.90
51215;DHT22;63849;47.546;19.254;2022-11-15T10:30:43;8.90;85.90
51215;DHT22;63849;47.546;19.254;2022-11-15T10:38:52;8.80;85.60
51215;DHT22;63849;47.546;19.254;2022-11-15T10:41:29;8.80;86.00
51215;DHT22;63849;47.546;19.254;2022-11-15T10:49:18;8.50;86.50
51215;DHT22;63849;47.546;19.254;2022-11-15T10:52:30;8.50;86.80
51215;DHT22;63849;47.546;19.254;2022-11-15T10:54:39;8.60;86.90
51215;DHT22;63849;47.546;19.254;2022-11-15T10:57:38;8.70;87.10
51215;DHT22;63849;47.546;19.254;2022-11-15T11:03:02;8.70;87.30
51215;DHT22;63849;47.546;19.254;2022-11-15T11:05:49;8.80;87.20
51215;DHT22;63849;47.546;19.254;2022-11-15T11:10:55;8.80;87.00
51215;DHT22;63849;47.546;19.254;2022-11-15T11:13:24;8.50;86.40
51215;DHT22;63849;47.546;19.254;2022-11-15T11:18:52;8.20;87.20
51215;DHT22;63849;47.546;19.254;2022-11-15T11:22:03;8.20;87.60
51215;DHT22;63849;47.546;19.254;2022-11-15T11:24:36;8.20;87.40
51215;DHT22;63849;47.546;19.254;2022-11-15T11:33:07;8.10;87.40
51215;DHT22;63849;47.546;19.254;2022-11-15T11:38:36;8.10;87.90
51215;DHT22;63849;47.546;19.254;2022-11-15T11:49:15;8.30;87.10
51215;DHT22;63849;47.546;19.254;2022-11-15T11:51:52;8.40;86.90
51215;DHT22;63849;47.546;19.254;2022-11-15T12:00:20;8.40;86.80
51215;DHT22;63849;47.546;19.254;2022-11-15T12:03:22;8.40;86.60
51215;DHT22;63849;47.546;19.254;2022-11-15T12:06:00;8.30;86.90
51215;DHT22;63849;47.546;19.254;2022-11-15T12:08:53;8.50;87.20
51215;DHT22;63849;47.546;19.254;2022-11-15T12:13:58;8.40;87.10
51215;DHT22;63849;47.546;19.254;2022-11-15T12:16:30;8.40;87.00
51215;DHT22;63849;47.546;19.254;2022-11-15T12:19:00;8.30;87.30
51215;DHT22;63849;47.546;19.254;2022-11-15T12:24:28;8.30;88.20
51215;DHT22;63849;47.546;19.254;2022-11-15T12:30:04;8.30;87.80
51215;DHT22;63849;47.546;19.254;2022-11-15T12:32:54;8.20;87.60
51215;DHT22;63849;47.546;19.254;2022-11-15T12:35:40;8.30;87.80
51215;DHT22;63849;47.546;19.254;2022-11-15T12:38:10;8.40;87.90
51215;DHT22;63849;47.546;19.254;2022-11-15T12:43:44;8.30;88.00
51215;DHT22;63849;47.546;19.254;2022-11-15T12:51:23;8.00;87.50
51215;DHT22;63849;47.546;19.254;2022-11-15T13:02:32;8.10;88.00
51215;DHT22;63849;47.546;19.254;2022-11-15T13:13:09;8.10;87.50
51215;DHT22;63849;47.546;19.254;2022-11-15T13:20:49;8.00;87.60
51215;DHT22;63849;47.546;19.254;2022-11-15T13:23:15;8.10;87.80
51215;DHT22;63849;47.546;19.254;2022-11-15T13:31:36;8.20;87.60
51215;DHT22;63849;47.546;19.254;2022-11-15T13:34:17;8.30;87.40
51215;DHT22;63849;47.546;19.254;2022-11-15T13:36:46;8.20;87.40
51215;DHT22;63849;47.546;19.254;2022-11-15T13:39:30;8.10;87.60
51215;DHT22;63849;47.546;19.254;2022-11-15T13:41:57;8.20;88.00
51215;DHT22;63849;47.546;19.254;2022-11-15T13:44:28;8.20;88.20
51215;DHT22;63849;47.546;19.254;2022-11-15T13:47:15;8.10;87.90
51215;DHT22;63849;47.546;19.254;2022-11-15T13:49:41;8.10;88.00
51215;DHT22;63849;47.546;19.254;2022-11-15T13:52:10;7.90;88.20
51215;DHT22;63849;47.546;19.254;2022-11-15T13:55:02;7.90;88.00
51215;DHT22;63849;47.546;19.254;2022-11-15T13:57:40;7.90;88.10
51215;DHT22;63849;47.546;19.254;2022-11-15T14:03:20;7.90;88.00
51215;DHT22;63849;47.546;19.254;2022-11-15T14:06:11;8.00;88.30
51215;DHT22;63849;47.546;19.254;2022-11-15T14:09:01;8.00;88.20
51215;DHT22;63849;47.546;19.254;2022-11-15T14:11:27;7.90;88.00
51215;DHT22;63849;47.546;19.254;2022-11-15T14:14:25;7.90;88.30
51215;DHT22;63849;47.546;19.254;2022-11-15T14:16:57;7.90;88.20
51215;DHT22;63849;47.546;19.254;2022-11-15T14:24:38;7.80;88.30
51215;DHT22;63849;47.546;19.254;2022-11-15T14:27:25;7.80;88.50
51215;DHT22;63849;47.546;19.254;2022-11-15T14:29:52;7.80;88.80
51215;DHT22;63849;47.546;19.254;2022-11-15T14:32:23;7.80;88.40
51215;DHT22;63849;47.546;19.254;2022-11-15T14:34:59;7.80;88.30
51215;DHT22;63849;47.546;19.254;2022-11-15T14:37:28;7.90;88.40
51215;DHT22;63849;47.546;19.254;2022-11-15T14:39:54;7.60;88.30
51215;DHT22;63849;47.546;19.254;2022-11-15T14:42:21;7.70;88.70
51215;DHT22;63849;47.546;19.254;2022-11-15T14:44:47;7.70;88.60
51215;DHT22;63849;47.546;19.254;2022-11-15T14:47:13;7.60;88.80
51215;DHT22;63849;47.546;19.254;2022-11-15T14:49:39;7.60;88.70
51215;DHT22;63849;47.546;19.254;2022-11-15T14:54:49;7.50;88.80
51215;DHT22;63849;47.546;19.254;2022-11-15T14:57:15;7.50;88.80
51215;DHT22;63849;47.546;19.254;2022-11-15T14:59:41;7.50;88.80
51215;DHT22;63849;47.546;19.254;2022-11-15T15:02:17;7.60;88.80
51215;DHT22;63849;47.546;19.254;2022-11-15T15:04:43;7.50;88.80
51215;DHT22;63849;47.546;19.254;2022-11-15T15:07:09;7.50;88.80
51215;DHT22;63849;47.546;19.254;2022-11-15T15:09:35;7.60;88.70
51215;DHT22;63849;47.546;19.254;2022-11-15T15:12:00;7.50;88.90
51215;DHT22;63849;47.546;19.254;2022-11-15T15:14:26;7.50;89.10
51215;DHT22;63849;47.546;19.254;2022-11-15T15:16:52;7.50;89.20
51215;DHT22;63849;47.546;19.254;2022-11-15T15:19:17;7.50;89.10
51215;DHT22;63849;47.546;19.254;2022-11-15T15:21:43;7.50;89.10
51215;DHT22;63849;47.546;19.254;2022-11-15T15:24:14;7.50;89.20
51215;DHT22;63849;47.546;19.254;2022-11-15T15:26:40;7.50;89.00
51215;DHT22;63849;47.546;19.254;2022-11-15T15:29:06;7.60;89.20
51215;DHT22;63849;47.546;19.254;2022-11-15T15:31:34;7.50;89.10
51215;DHT22;63849;47.546;19.254;2022-11-15T15:34:00;7.50;89.00
51215;DHT22;63849;47.546;19.254;2022-11-15T15:36:26;7.60;89.00
51215;DHT22;63849;47.546;19.254;2022-11-15T15:38:52;7.40;89.10
51215;DHT22;63849;47.546;19.254;2022-11-15T15:41:18;7.50;89.20
51215;DHT22;63849;47.546;19.254;2022-11-15T15:43:44;7.50;89.30
51215;DHT22;63849;47.546;19.254;2022-11-15T15:46:12;7.50;89.20
51215;DHT22;63849;47.546;19.254;2022-11-15T15:48:39;7.60;89.10
51215;DHT22;63849;47.546;19.254;2022-11-15T15:51:07;7.60;89.20
51215;DHT22;63849;47.546;19.254;2022-11-15T15:53:33;7.50;89.20
51215;DHT22;63849;47.546;19.254;2022-11-15T15:55:59;7.60;89.10
51215;DHT22;63849;47.546;19.254;2022-11-15T15:58:25;7.50;89.30
51215;DHT22;63849;47.546;19.254;2022-11-15T16:00:51;7.60;89.40
51215;DHT22;63849;47.546;19.254;2022-11-15T16:03:17;7.60;89.50
51215;DHT22;63849;47.546;19.254;2022-11-15T16:05:43;7.60;89.30
51215;DHT22;63849;47.546;19.254;2022-11-15T16:08:21;7.60;89.60
51215;DHT22;63849;47.546;19.254;2022-11-15T16:10:47;7.60;89.50
51215;DHT22;63849;47.546;19.254;2022-11-15T16:13:13;7.60;89.40
51215;DHT22;63849;47.546;19.254;2022-11-15T16:15:39;7.60;89.40
51215;DHT22;63849;47.546;19.254;2022-11-15T16:18:06;7.60;89.50
51215;DHT22;63849;47.546;19.254;2022-11-15T16:20:40;7.60;89.60
51215;DHT22;63849;47.546;19.254;2022-11-15T16:23:09;7.60;89.60
51215;DHT22;63849;47.546;19.254;2022-11-15T16:25:45;7.60;89.50
51215;DHT22;63849;47.546;19.254;2022-11-15T16:30:45;7.60;89.30
51215;DHT22;63849;47.546;19.254;2022-11-15T16:33:11;7.60;89.50
51215;DHT22;63849;47.546;19.254;2022-11-15T16:35:37;7.50;89.70
51215;DHT22;63849;47.546;19.254;2022-11-15T16:38:02;7.50;89.90
51215;DHT22;63849;47.546;19.254;2022-11-15T16:40:31;7.50;89.90
51215;DHT22;63849;47.546;19.254;2022-11-15T16:42:58;7.60;89.90
51215;DHT22;63849;47.546;19.254;2022-11-15T16:45:24;7.50;90.00
51215;DHT22;63849;47.546;19.254;2022-11-15T16:47:52;7.60;90.20
51215;DHT22;63849;47.546;19.254;2022-11-15T16:50:23;7.70;90.00
51215;DHT22;63849;47.546;19.254;2022-11-15T16:52:55;7.60;90.10
51215;DHT22;63849;47.546;19.254;2022-11-15T16:55:23;7.60;90.00
51215;DHT22;63849;47.546;19.254;2022-11-15T16:57:49;7.60;90.20
51215;DHT22;63849;47.546;19.254;2022-11-15T17:00:17;7.60;90.30
51215;DHT22;63849;47.546;19.254;2022-11-15T17:02:48;7.60;90.30
51215;DHT22;63849;47.546;19.254;2022-11-15T17:05:16;7.60;90.30
51215;DHT22;63849;47.546;19.254;2022-11-15T17:07:42;7.70;90.30
51215;DHT22;63849;47.546;19.254;2022-11-15T17:10:10;7.60;90.40
51215;DHT22;63849;47.546;19.254;2022-11-15T17:12:37;7.60;90.50
51215;DHT22;63849;47.546;19.254;2022-11-15T17:15:03;7.70;90.50
51215;DHT22;63849;47.546;19.254;2022-11-15T17:17:30;7.70;90.50
51215;DHT22;63849;47.546;19.254;2022-11-15T17:19:56;7.70;90.50
51215;DHT22;63849;47.546;19.254;2022-11-15T17:22:22;7.80;90.60
51215;DHT22;63849;47.546;19.254;2022-11-15T17:24:48;7.70;90.60
51215;DHT22;63849;47.546;19.254;2022-11-15T17:27:14;7.70;90.70
51215;DHT22;63849;47.546;19.254;2022-11-15T17:29:40;7.70;90.80
51215;DHT22;63849;47.546;19.254;2022-11-15T17:32:07;7.70;90.80
51215;DHT22;63849;47.546;19.254;2022-11-15T17:34:33;7.70;90.80
51215;DHT22;63849;47.546;19.254;2022-11-15T17:36:59;7.60;90.90
51215;DHT22;63849;47.546;19.254;2022-11-15T17:39:25;7.60;91.00
51215;DHT22;63849;47.546;19.254;2022-11-15T17:41:51;7.70;91.00
51215;DHT22;63849;47.546;19.254;2022-11-15T17:44:16;7.70;91.00
51215;DHT22;63849;47.546;19.254;2022-11-15T17:46:42;7.70;91.00
51215;DHT22;63849;47.546;19.254;2022-11-15T17:49:08;7.80;90.90
51215;DHT22;63849;47.546;19.254;2022-11-15T17:51:34;7.80;90.90
51215;DHT22;63849;47.546;19.254;2022-11-15T17:54:00;7.80;90.90
51215;DHT22;63849;47.546;19.254;2022-11-15T17:56:27;7.80;91.00
51215;DHT22;63849;47.546;19.254;2022-11-15T17:58:55;7.80;90.90
51215;DHT22;63849;47.546;19.254;2022-11-15T18:01:24;7.80;90.80
51215;DHT22;63849;47.546;19.254;2022-11-15T18:03:51;7.80;90.80
51215;DHT22;63849;47.546;19.254;2022-11-15T18:06:18;7.80;90.80
51215;DHT22;63849;47.546;19.254;2022-11-15T18:08:45;7.80;90.70
51215;DHT22;63849;47.546;19.254;2022-11-15T18:11:20;7.80;90.70
51215;DHT22;63849;47.546;19.254;2022-11-15T18:13:49;7.80;90.70
51215;DHT22;63849;47.546;19.254;2022-11-15T18:16:18;7.80;90.70
51215;DHT22;63849;47.546;19.254;2022-11-15T18:18:44;7.80;90.60
51215;DHT22;63849;47.546;19.254;2022-11-15T18:21:12;7.90;90.60
51215;DHT22;63849;47.546;19.254;2022-11-15T18:23:39;7.90;90.50
51215;DHT22;63849;47.546;19.254;2022-11-15T18:26:07;7.90;90.60
51215;DHT22;63849;47.546;19.254;2022-11-15T18:28:41;7.80;90.40
51215;DHT22;63849;47.546;19.254;2022-11-15T18:31:17;7.80;90.70
51215;DHT22;63849;47.546;19.254;2022-11-15T18:33:48;7.80;90.70
51215;DHT22;63849;47.546;19.254;2022-11-15T18:36:22;7.80;90.80
51215;DHT22;63849;47.546;19.254;2022-11-15T18:39:00;7.80;90.90
51215;DHT22;63849;47.546;19.254;2022-11-15T18:41:33;7.90;90.90
51215;DHT22;63849;47.546;19.254;2022-11-15T18:44:01;7.80;90.90
51215;DHT22;63849;47.546;19.254;2022-11-15T18:46:28;7.80;90.80
51215;DHT22;63849;47.546;19.254;2022-11-15T18:48:59;7.90;90.80
51215;DHT22;63849;47.546;19.254;2022-11-15T18:51:27;7.90;90.80
51215;DHT22;63849;47.546;19.254;2022-11-15T18:53:59;7.90;90.50
51215;DHT22;63849;47.546;19.254;2022-11-15T18:56:26;7.90;90.50
51215;DHT22;63849;47.546;19.254;2022-11-15T18:58:55;7.90;90.40
51215;DHT22;63849;47.546;19.254;2022-11-15T19:01:29;7.90;90.30
51215;DHT22;63849;47.546;19.254;2022-11-15T19:03:58;7.80;90.20
51215;DHT22;63849;47.546;19.254;2022-11-15T19:06:29;7.90;90.40
51215;DHT22;63849;47.546;19.254;2022-11-15T19:08:57;7.90;90.30
51215;DHT22;63849;47.546;19.254;2022-11-15T19:11:28;7.80;90.40
51215;DHT22;63849;47.546;19.254;2022-11-15T19:14:04;7.80;90.40
51215;DHT22;63849;47.546;19.254;2022-11-15T19:16:36;7.80;90.30
51215;DHT22;63849;47.546;19.254;2022-11-15T19:19:08;7.80;90.50
51215;DHT22;63849;47.546;19.254;2022-11-15T19:22:06;7.80;90.60
51215;DHT22;63849;47.546;19.254;2022-11-15T19:24:32;7.90;90.50
51215;DHT22;63849;47.546;19.254;2022-11-15T19:26:57;7.90;90.30
51215;DHT22;63849;47.546;19.254;2022-11-15T19:29:23;7.90;90.30
51215;DHT22;63849;47.546;19.254;2022-11-15T19:31:49;7.90;90.20
51215;DHT22;63849;47.546;19.254;2022-11-15T19:38:04;7.90;89.90
51215;DHT22;63849;47.546;19.254;2022-11-15T19:40:32;7.90;89.80
51215;DHT22;63849;47.546;19.254;2022-11-15T19:43:01;7.90;89.90
51215;DHT22;63849;47.546;19.254;2022-11-15T19:45:27;7.90;89.90
51215;DHT22;63849;47.546;19.254;2022-11-15T19:47:53;7.80;89.90